sensor_id;sensor_type;location;lat;lon;timestamp;P1;durP1;ratioP1;P2;durP2;ratioP2
25905;SDS011;13713;52.552;13.204;2023-11-21T00:00:00;13.98;;;8.68;;
25905;SDS011;13713;52.552;13.204;2023-11-21T00:02:38;13.90;;;8.93;;
25905;SDS011;13713;52.552;13.204;2023-11-21T00:05:06;16.73;;;8.70;;
25905;SDS011;13713;52.552;13.204;2023-11-21T00:07:33;16.50;;;9.50;;
25905;SDS011;13713;52.552;13.204;2023-11-21T00:09:59;15.20;;;10.18;;
25905;SDS011;13713;52.552;13.204;2023-11-21T00:12:24;16.17;;;9.63;;
25905;SDS011;13713;52.552;13.204;2023-11-21T00:14:50;17.95;;;9.85;;
25905;SDS011;13713;52.552;13.204;2023-11-21T00:17:16;14.75;;;9.82;;
25905;SDS011;13713;52.552;13.204;2023-11-21T00:19:41;17.73;;;10.23;;
25905;SDS011;13713;52.552;13.204;2023-11-21T00:22:08;15.40;;;9.95;;
25905;SDS011;13713;52.552;13.204;2023-11-21T00:24:34;14.43;;;9.45;;
25905;SDS011;13713;52.552;13.204;2023-11-21T00:27:00;15.98;;;9.55;;
25905;SDS011;13713;52.552;13.204;2023-11-21T00:29:25;16.65;;;10.40;;
25905;SDS011;13713;52.552;13.204;2023-11-21T00:31:51;17.00;;;10.25;;
25905;SDS011;13713;52.552;13.204;2023-11-21T00:34:17;16.08;;;9.73;;
25905;SDS011;13713;52.552;13.204;2023-11-21T00:36:43;17.25;;;10.48;;
25905;SDS011;13713;52.552;13.204;2023-11-21T00:39:09;16.42;;;9.82;;
25905;SDS011;13713;52.552;13.204;2023-11-21T00:41:36;20.25;;;10.65;;
25905;SDS011;13713;52.552;13.204;2023-11-21T00:44:02;14.95;;;9.73;;
25905;SDS011;13713;52.552;13.204;2023-11-21T00:46:28;17.83;;;10.45;;
25905;SDS011;13713;52.552;13.204;2023-11-21T00:48:54;19.23;;;10.30;;
25905;SDS011;13713;52.552;13.204;2023-11-21T00:51:21;14.88;;;9.18;;
25905;SDS011;13713;52.552;13.204;2023-11-21T00:53:47;17.95;;;9.82;;
25905;SDS011;13713;52.552;13.204;2023-11-21T00:56:13;16.20;;;10.48;;
25905;SDS011;13713;52.552;13.204;2023-11-21T00:58:41;14.60;;;9.52;;
25905;SDS011;13713;52.552;13.204;2023-11-21T01:01:12;17.77;;;10.27;;
25905;SDS011;13713;52.552;13.204;2023-11-21T01:03:38;17.20;;;9.65;;
25905;SDS011;13713;52.552;13.204;2023-11-21T01:06:03;16.67;;;10.02;;
25905;SDS011;13713;52.552;13.204;2023-11-21T01:08:32;15.77;;;10.32;;
25905;SDS011;13713;52.552;13.204;2023-11-21T01:10:58;15.70;;;9.90;;
25905;SDS011;13713;52.552;13.204;2023-11-21T01:13:26;17.23;;;10.05;;
25905;SDS011;13713;52.552;13.204;2023-11-21T01:15:55;17.98;;;10.68;;
25905;SDS011;13713;52.552;13.204;2023-11-21T01:18:21;17.77;;;9.75;;
25905;SDS011;13713;52.552;13.204;2023-11-21T01:20:47;13.15;;;8.77;;
25905;SDS011;13713;52.552;13.204;2023-11-21T01:23:13;16.83;;;10.02;;
25905;SDS011;13713;52.552;13.204;2023-11-21T01:25:39;17.63;;;10.27;;
25905;SDS011;13713;52.552;13.204;2023-11-21T01:28:05;15.57;;;9.40;;
25905;SDS011;13713;52.552;13.204;2023-11-21T01:30:31;16.48;;;10.40;;
25905;SDS011;13713;52.552;13.204;2023-11-21T01:32:57;14.77;;;9.70;;
25905;SDS011;13713;52.552;13.204;2023-11-21T01:35:24;16.45;;;10.50;;
25905;SDS011;13713;52.552;13.204;2023-11-21T01:37:51;16.98;;;10.00;;
25905;SDS011;13713;52.552;13.204;2023-11-21T01:40:17;15.68;;;10.10;;
25905;SDS011;13713;52.552;13.204;2023-11-21T01:42:44;14.80;;;9.85;;
25905;SDS011;13713;52.552;13.204;2023-11-21T01:45:12;14.98;;;9.27;;
25905;SDS011;13713;52.552;13.204;2023-11-21T01:47:38;14.52;;;9.35;;
25905;SDS011;13713;52.552;13.204;2023-11-21T01:50:06;17.92;;;10.50;;
25905;SDS011;13713;52.552;13.204;2023-11-21T01:52:34;16.15;;;10.70;;
25905;SDS011;13713;52.552;13.204;2023-11-21T01:55:00;16.13;;;9.77;;
25905;SDS011;13713;52.552;13.204;2023-11-21T01:57:27;18.70;;;11.00;;
25905;SDS011;13713;52.552;13.204;2023-11-21T01:59:54;17.08;;;10.35;;
25905;SDS011;13713;52.552;13.204;2023-11-21T02:02:21;17.20;;;10.18;;
25905;SDS011;13713;52.552;13.204;2023-11-21T02:04:46;14.95;;;10.00;;
25905;SDS011;13713;52.552;13.204;2023-11-21T02:07:12;14.80;;;10.10;;
25905;SDS011;13713;52.552;13.204;2023-11-21T02:09:38;16.52;;;10.35;;
25905;SDS011;13713;52.552;13.204;2023-11-21T02:12:08;14.98;;;10.30;;
25905;SDS011;13713;52.552;13.204;2023-11-21T02:14:38;17.60;;;10.77;;
25905;SDS011;13713;52.552;13.204;2023-11-21T02:17:04;15.15;;;9.75;;
25905;SDS011;13713;52.552;13.204;2023-11-21T02:19:31;15.30;;;9.60;;
25905;SDS011;13713;52.552;13.204;2023-11-21T02:21:57;16.75;;;10.77;;
25905;SDS011;13713;52.552;13.204;2023-11-21T02:24:26;14.50;;;10.07;;
25905;SDS011;13713;52.552;13.204;2023-11-21T02:26:52;16.70;;;10.48;;
25905;SDS011;13713;52.552;13.204;2023-11-21T02:29:18;14.20;;;9.35;;
25905;SDS011;13713;52.552;13.204;2023-11-21T02:31:47;14.77;;;10.15;;
25905;SDS011;13713;52.552;13.204;2023-11-21T02:34:15;17.20;;;10.35;;
25905;SDS011;13713;52.552;13.204;2023-11-21T02:36:45;14.82;;;9.43;;
25905;SDS011;13713;52.552;13.204;2023-11-21T02:39:11;17.10;;;10.25;;
25905;SDS011;13713;52.552;13.204;2023-11-21T02:41:39;14.73;;;9.52;;
25905;SDS011;13713;52.552;13.204;2023-11-21T02:44:05;17.63;;;11.65;;
25905;SDS011;13713;52.552;13.204;2023-11-21T02:46:35;14.93;;;9.98;;
25905;SDS011;13713;52.552;13.204;2023-11-21T02:49:02;17.98;;;10.65;;
25905;SDS011;13713;52.552;13.204;2023-11-21T02:51:28;14.98;;;10.20;;
25905;SDS011;13713;52.552;13.204;2023-11-21T02:53:54;17.45;;;10.63;;
25905;SDS011;13713;52.552;13.204;2023-11-21T02:56:24;15.90;;;11.07;;
25905;SDS011;13713;52.552;13.204;2023-11-21T02:58:51;17.20;;;10.90;;
25905;SDS011;13713;52.552;13.204;2023-11-21T03:01:17;14.77;;;10.13;;
25905;SDS011;13713;52.552;13.204;2023-11-21T03:03:43;15.93;;;10.95;;
25905;SDS011;13713;52.552;13.204;2023-11-21T03:06:09;16.23;;;10.95;;
25905;SDS011;13713;52.552;13.204;2023-11-21T03:08:35;16.75;;;11.25;;
25905;SDS011;13713;52.552;13.204;2023-11-21T03:11:01;16.60;;;10.70;;
25905;SDS011;13713;52.552;13.204;2023-11-21T03:13:30;17.33;;;10.77;;
25905;SDS011;13713;52.552;13.204;2023-11-21T03:15:57;17.02;;;11.40;;
25905;SDS011;13713;52.552;13.204;2023-11-21T03:18:23;15.27;;;10.25;;
25905;SDS011;13713;52.552;13.204;2023-11-21T03:20:48;15.63;;;10.30;;
25905;SDS011;13713;52.552;13.204;2023-11-21T03:23:14;16.65;;;11.60;;
25905;SDS011;13713;52.552;13.204;2023-11-21T03:25:40;16.55;;;11.02;;
25905;SDS011;13713;52.552;13.204;2023-11-21T03:28:06;17.38;;;11.65;;
25905;SDS011;13713;52.552;13.204;2023-11-21T03:30:35;16.85;;;11.55;;
25905;SDS011;13713;52.552;13.204;2023-11-21T03:33:00;17.38;;;11.13;;
25905;SDS011;13713;52.552;13.204;2023-11-21T03:35:26;15.23;;;10.40;;
25905;SDS011;13713;52.552;13.204;2023-11-21T03:37:53;16.55;;;10.70;;
25905;SDS011;13713;52.552;13.204;2023-11-21T03:40:18;16.23;;;11.15;;
25905;SDS011;13713;52.552;13.204;2023-11-21T03:42:46;15.95;;;10.73;;
25905;SDS011;13713;52.552;13.204;2023-11-21T03:45:12;18.67;;;10.88;;
25905;SDS011;13713;52.552;13.204;2023-11-21T03:47:40;16.85;;;11.48;;
25905;SDS011;13713;52.552;13.204;2023-11-21T03:50:09;17.25;;;11.63;;
25905;SDS011;13713;52.552;13.204;2023-11-21T03:52:35;18.30;;;11.77;;
25905;SDS011;13713;52.552;13.204;2023-11-21T03:55:02;17.48;;;11.43;;
25905;SDS011;13713;52.552;13.204;2023-11-21T03:57:28;16.98;;;11.63;;
25905;SDS011;13713;52.552;13.204;2023-11-21T03:59:53;16.77;;;11.55;;
25905;SDS011;13713;52.552;13.204;2023-11-21T04:02:19;16.38;;;11.40;;
25905;SDS011;13713;52.552;13.204;2023-11-21T04:04:45;17.02;;;11.48;;
25905;SDS011;13713;52.552;13.204;2023-11-21T04:07:11;17.45;;;11.75;;
25905;SDS011;13713;52.552;13.204;2023-11-21T04:09:38;17.52;;;11.75;;
25905;SDS011;13713;52.552;13.204;2023-11-21T04:12:06;17.15;;;11.20;;
25905;SDS011;13713;52.552;13.204;2023-11-21T04:14:34;17.33;;;11.38;;
25905;SDS011;13713;52.552;13.204;2023-11-21T04:16:59;17.02;;;11.40;;
25905;SDS011;13713;52.552;13.204;2023-11-21T04:19:29;18.08;;;11.20;;
25905;SDS011;13713;52.552;13.204;2023-11-21T04:21:55;18.08;;;11.88;;
25905;SDS011;13713;52.552;13.204;2023-11-21T04:24:21;16.85;;;11.43;;
25905;SDS011;13713;52.552;13.204;2023-11-21T04:26:46;17.33;;;11.43;;
25905;SDS011;13713;52.552;13.204;2023-11-21T04:29:14;17.75;;;11.70;;
25905;SDS011;13713;52.552;13.204;2023-11-21T04:31:43;17.75;;;11.50;;
25905;SDS011;13713;52.552;13.204;2023-11-21T04:34:08;17.67;;;10.77;;
25905;SDS011;13713;52.552;13.204;2023-11-21T04:36:34;17.05;;;11.23;;
25905;SDS011;13713;52.552;13.204;2023-11-21T04:39:00;17.85;;;11.80;;
25905;SDS011;13713;52.552;13.204;2023-11-21T04:41:26;18.52;;;12.38;;
25905;SDS011;13713;52.552;13.204;2023-11-21T04:43:52;17.95;;;11.75;;
25905;SDS011;13713;52.552;13.204;2023-11-21T04:46:20;18.10;;;11.70;;
25905;SDS011;13713;52.552;13.204;2023-11-21T04:48:46;16.88;;;10.90;;
25905;SDS011;13713;52.552;13.204;2023-11-21T04:51:15;19.80;;;12.85;;
25905;SDS011;13713;52.552;13.204;2023-11-21T04:53:41;15.70;;;10.13;;
25905;SDS011;13713;52.552;13.204;2023-11-21T04:56:07;17.95;;;11.27;;
25905;SDS011;13713;52.552;13.204;2023-11-21T04:58:33;14.52;;;10.18;;
25905;SDS011;13713;52.552;13.204;2023-11-21T05:00:58;16.33;;;10.52;;
25905;SDS011;13713;52.552;13.204;2023-11-21T05:03:24;15.77;;;10.55;;
25905;SDS011;13713;52.552;13.204;2023-11-21T05:05:50;16.98;;;10.98;;
25905;SDS011;13713;52.552;13.204;2023-11-21T05:08:15;17.77;;;11.40;;
25905;SDS011;13713;52.552;13.204;2023-11-21T05:10:41;15.32;;;9.75;;
25905;SDS011;13713;52.552;13.204;2023-11-21T05:13:07;46.25;;;14.27;;
25905;SDS011;13713;52.552;13.204;2023-11-21T05:15:35;16.48;;;10.32;;
25905;SDS011;13713;52.552;13.204;2023-11-21T05:18:01;13.27;;;7.90;;
25905;SDS011;13713;52.552;13.204;2023-11-21T05:20:27;13.48;;;8.80;;
25905;SDS011;13713;52.552;13.204;2023-11-21T05:22:53;11.95;;;8.18;;
25905;SDS011;13713;52.552;13.204;2023-11-21T05:25:19;14.20;;;8.95;;
25905;SDS011;13713;52.552;13.204;2023-11-21T05:27:45;10.52;;;7.07;;
25905;SDS011;13713;52.552;13.204;2023-11-21T05:30:11;12.65;;;7.88;;
25905;SDS011;13713;52.552;13.204;2023-11-21T05:32:38;11.35;;;7.75;;
25905;SDS011;13713;52.552;13.204;2023-11-21T05:35:04;11.65;;;7.40;;
25905;SDS011;13713;52.552;13.204;2023-11-21T05:37:35;10.38;;;7.35;;
25905;SDS011;13713;52.552;13.204;2023-11-21T05:40:01;12.32;;;7.57;;
25905;SDS011;13713;52.552;13.204;2023-11-21T05:42:31;55.70;;;14.35;;
25905;SDS011;13713;52.552;13.204;2023-11-21T05:44:57;14.68;;;8.52;;
25905;SDS011;13713;52.552;13.204;2023-11-21T05:47:39;15.18;;;6.93;;
25905;SDS011;13713;52.552;13.204;2023-11-21T05:50:06;11.52;;;7.13;;
25905;SDS011;13713;52.552;13.204;2023-11-21T05:55:04;9.57;;;6.05;;
25905;SDS011;13713;52.552;13.204;2023-11-21T05:57:37;12.25;;;7.05;;
25905;SDS011;13713;52.552;13.204;2023-11-21T06:00:04;11.77;;;6.38;;
25905;SDS011;13713;52.552;13.204;2023-11-21T06:02:45;22.63;;;7.03;;
25905;SDS011;13713;52.552;13.204;2023-11-21T06:05:18;24.48;;;7.85;;
25905;SDS011;13713;52.552;13.204;2023-11-21T06:07:45;17.73;;;6.45;;
25905;SDS011;13713;52.552;13.204;2023-11-21T06:10:12;30.20;;;9.38;;
25905;SDS011;13713;52.552;13.204;2023-11-21T06:12:39;85.72;;;16.35;;
25905;SDS011;13713;52.552;13.204;2023-11-21T06:15:08;19.13;;;7.80;;
25905;SDS011;13713;52.552;13.204;2023-11-21T06:17:35;16.60;;;7.63;;
25905;SDS011;13713;52.552;13.204;2023-11-21T06:20:05;13.87;;;6.63;;
25905;SDS011;13713;52.552;13.204;2023-11-21T06:22:36;10.10;;;6.10;;
25905;SDS011;13713;52.552;13.204;2023-11-21T06:25:03;24.45;;;8.98;;
25905;SDS011;13713;52.552;13.204;2023-11-21T06:27:34;20.08;;;7.50;;
25905;SDS011;13713;52.552;13.204;2023-11-21T06:30:03;18.20;;;8.50;;
25905;SDS011;13713;52.552;13.204;2023-11-21T06:32:29;28.70;;;9.05;;
25905;SDS011;13713;52.552;13.204;2023-11-21T06:34:55;37.33;;;9.60;;
25905;SDS011;13713;52.552;13.204;2023-11-21T06:37:24;18.52;;;7.65;;
25905;SDS011;13713;52.552;13.204;2023-11-21T06:39:51;28.20;;;9.27;;
25905;SDS011;13713;52.552;13.204;2023-11-21T06:42:18;22.83;;;8.38;;
25905;SDS011;13713;52.552;13.204;2023-11-21T06:44:47;53.75;;;15.73;;
25905;SDS011;13713;52.552;13.204;2023-11-21T06:47:13;35.30;;;10.25;;
25905;SDS011;13713;52.552;13.204;2023-11-21T06:49:39;29.73;;;10.38;;
25905;SDS011;13713;52.552;13.204;2023-11-21T06:52:04;28.25;;;9.90;;
25905;SDS011;13713;52.552;13.204;2023-11-21T06:54:31;29.33;;;9.45;;
25905;SDS011;13713;52.552;13.204;2023-11-21T06:56:57;21.35;;;8.25;;
25905;SDS011;13713;52.552;13.204;2023-11-21T06:59:23;21.23;;;7.63;;
25905;SDS011;13713;52.552;13.204;2023-11-21T07:01:50;20.83;;;8.48;;
25905;SDS011;13713;52.552;13.204;2023-11-21T07:04:15;23.02;;;8.50;;
25905;SDS011;13713;52.552;13.204;2023-11-21T07:06:41;26.63;;;9.60;;
25905;SDS011;13713;52.552;13.204;2023-11-21T07:09:08;26.70;;;8.55;;
25905;SDS011;13713;52.552;13.204;2023-11-21T07:11:34;29.63;;;11.93;;
25905;SDS011;13713;52.552;13.204;2023-11-21T07:14:00;36.08;;;12.27;;
25905;SDS011;13713;52.552;13.204;2023-11-21T07:16:35;36.28;;;12.23;;
25905;SDS011;13713;52.552;13.204;2023-11-21T07:19:05;43.67;;;13.45;;
25905;SDS011;13713;52.552;13.204;2023-11-21T07:21:32;59.40;;;16.38;;
25905;SDS011;13713;52.552;13.204;2023-11-21T07:24:02;46.63;;;12.68;;
25905;SDS011;13713;52.552;13.204;2023-11-21T07:26:29;34.83;;;12.27;;
25905;SDS011;13713;52.552;13.204;2023-11-21T07:29:01;51.60;;;15.57;;
25905;SDS011;13713;52.552;13.204;2023-11-21T07:31:27;38.85;;;13.63;;
25905;SDS011;13713;52.552;13.204;2023-11-21T07:33:54;47.35;;;16.48;;
25905;SDS011;13713;52.552;13.204;2023-11-21T07:36:22;42.38;;;15.65;;
25905;SDS011;13713;52.552;13.204;2023-11-21T07:38:49;40.40;;;14.45;;
25905;SDS011;13713;52.552;13.204;2023-11-21T07:41:15;35.28;;;14.80;;
25905;SDS011;13713;52.552;13.204;2023-11-21T07:43:43;36.33;;;14.40;;
25905;SDS011;13713;52.552;13.204;2023-11-21T07:46:09;37.70;;;15.35;;
25905;SDS011;13713;52.552;13.204;2023-11-21T07:48:37;39.20;;;14.95;;
25905;SDS011;13713;52.552;13.204;2023-11-21T07:51:03;37.60;;;19.88;;
25905;SDS011;13713;52.552;13.204;2023-11-21T07:53:29;37.08;;;18.55;;
25905;SDS011;13713;52.552;13.204;2023-11-21T07:55:55;36.33;;;19.83;;
25905;SDS011;13713;52.552;13.204;2023-11-21T07:58:22;35.15;;;20.27;;
25905;SDS011;13713;52.552;13.204;2023-11-21T08:00:49;44.80;;;26.33;;
25905;SDS011;13713;52.552;13.204;2023-11-21T08:03:14;49.63;;;27.52;;
25905;SDS011;13713;52.552;13.204;2023-11-21T08:05:41;44.90;;;25.73;;
25905;SDS011;13713;52.552;13.204;2023-11-21T08:08:07;45.35;;;23.80;;
25905;SDS011;13713;52.552;13.204;2023-11-21T08:10:33;44.58;;;25.10;;
25905;SDS011;13713;52.552;13.204;2023-11-21T08:13:01;44.88;;;24.52;;
25905;SDS011;13713;52.552;13.204;2023-11-21T08:15:27;45.60;;;25.45;;
25905;SDS011;13713;52.552;13.204;2023-11-21T08:17:53;39.50;;;22.52;;
25905;SDS011;13713;52.552;13.204;2023-11-21T08:20:18;65.60;;;23.25;;
25905;SDS011;13713;52.552;13.204;2023-11-21T08:22:44;36.47;;;19.30;;
25905;SDS011;13713;52.552;13.204;2023-11-21T08:25:10;35.00;;;17.98;;
25905;SDS011;13713;52.552;13.204;2023-11-21T08:27:36;34.75;;;18.65;;
25905;SDS011;13713;52.552;13.204;2023-11-21T08:30:02;29.25;;;15.98;;
25905;SDS011;13713;52.552;13.204;2023-11-21T08:32:29;30.02;;;15.60;;
25905;SDS011;13713;52.552;13.204;2023-11-21T08:34:58;31.27;;;16.52;;
25905;SDS011;13713;52.552;13.204;2023-11-21T08:37:25;39.38;;;18.20;;
25905;SDS011;13713;52.552;13.204;2023-11-21T08:39:52;32.05;;;19.65;;
25905;SDS011;13713;52.552;13.204;2023-11-21T08:42:18;34.40;;;20.10;;
25905;SDS011;13713;52.552;13.204;2023-11-21T08:44:44;38.60;;;22.20;;
25905;SDS011;13713;52.552;13.204;2023-11-21T08:47:11;36.97;;;21.90;;
25905;SDS011;13713;52.552;13.204;2023-11-21T08:49:37;40.22;;;23.13;;
25905;SDS011;13713;52.552;13.204;2023-11-21T08:52:03;34.97;;;20.83;;
25905;SDS011;13713;52.552;13.204;2023-11-21T08:54:31;34.65;;;19.35;;
25905;SDS011;13713;52.552;13.204;2023-11-21T08:56:57;27.42;;;16.55;;
25905;SDS011;13713;52.552;13.204;2023-11-21T08:59:25;34.97;;;18.10;;
25905;SDS011;13713;52.552;13.204;2023-11-21T09:01:51;30.02;;;17.75;;
25905;SDS011;13713;52.552;13.204;2023-11-21T09:04:17;29.40;;;17.40;;
25905;SDS011;13713;52.552;13.204;2023-11-21T09:06:43;42.85;;;26.08;;
25905;SDS011;13713;52.552;13.204;2023-11-21T09:09:09;51.92;;;27.98;;
25905;SDS011;13713;52.552;13.204;2023-11-21T09:11:35;158.52;;;112.68;;
25905;SDS011;13713;52.552;13.204;2023-11-21T09:14:02;85.55;;;56.40;;
25905;SDS011;13713;52.552;13.204;2023-11-21T09:16:28;51.30;;;31.90;;
25905;SDS011;13713;52.552;13.204;2023-11-21T09:18:54;58.20;;;32.22;;
25905;SDS011;13713;52.552;13.204;2023-11-21T09:21:20;47.92;;;27.30;;
25905;SDS011;13713;52.552;13.204;2023-11-21T09:23:46;46.63;;;30.05;;
25905;SDS011;13713;52.552;13.204;2023-11-21T09:26:13;66.50;;;44.95;;
25905;SDS011;13713;52.552;13.204;2023-11-21T09:28:41;47.35;;;30.85;;
25905;SDS011;13713;52.552;13.204;2023-11-21T09:31:11;50.60;;;29.38;;
25905;SDS011;13713;52.552;13.204;2023-11-21T09:33:37;52.78;;;31.13;;
25905;SDS011;13713;52.552;13.204;2023-11-21T09:36:03;49.22;;;29.50;;
25905;SDS011;13713;52.552;13.204;2023-11-21T09:38:30;61.05;;;34.40;;
25905;SDS011;13713;52.552;13.204;2023-11-21T09:40:56;54.58;;;33.00;;
25905;SDS011;13713;52.552;13.204;2023-11-21T09:43:23;49.33;;;30.23;;
25905;SDS011;13713;52.552;13.204;2023-11-21T09:46:02;45.47;;;28.77;;
25905;SDS011;13713;52.552;13.204;2023-11-21T09:48:31;43.17;;;28.58;;
25905;SDS011;13713;52.552;13.204;2023-11-21T09:50:59;40.95;;;24.80;;
25905;SDS011;13713;52.552;13.204;2023-11-21T09:53:28;60.97;;;43.47;;
25905;SDS011;13713;52.552;13.204;2023-11-21T09:55:59;40.25;;;25.38;;
25905;SDS011;13713;52.552;13.204;2023-11-21T09:58:27;37.08;;;23.52;;
25905;SDS011;13713;52.552;13.204;2023-11-21T10:00:56;31.52;;;20.58;;
25905;SDS011;13713;52.552;13.204;2023-11-21T10:03:24;44.80;;;24.42;;
25905;SDS011;13713;52.552;13.204;2023-11-21T10:05:50;35.70;;;21.40;;
25905;SDS011;13713;52.552;13.204;2023-11-21T10:08:18;35.10;;;22.45;;
25905;SDS011;13713;52.552;13.204;2023-11-21T10:10:48;33.28;;;20.95;;
25905;SDS011;13713;52.552;13.204;2023-11-21T10:13:16;28.35;;;18.90;;
25905;SDS011;13713;52.552;13.204;2023-11-21T10:15:44;30.38;;;19.27;;
25905;SDS011;13713;52.552;13.204;2023-11-21T10:18:15;26.52;;;17.15;;
25905;SDS011;13713;52.552;13.204;2023-11-21T10:20:41;35.88;;;21.05;;
25905;SDS011;13713;52.552;13.204;2023-11-21T10:23:08;35.78;;;22.88;;
25905;SDS011;13713;52.552;13.204;2023-11-21T10:25:36;40.90;;;24.05;;
25905;SDS011;13713;52.552;13.204;2023-11-21T10:28:03;42.47;;;24.73;;
25905;SDS011;13713;52.552;13.204;2023-11-21T10:30:36;36.47;;;22.52;;
25905;SDS011;13713;52.552;13.204;2023-11-21T10:33:03;44.00;;;24.77;;
25905;SDS011;13713;52.552;13.204;2023-11-21T10:35:46;42.72;;;27.15;;
25905;SDS011;13713;52.552;13.204;2023-11-21T10:38:19;57.38;;;35.72;;
25905;SDS011;13713;52.552;13.204;2023-11-21T10:40:49;54.08;;;34.65;;
25905;SDS011;13713;52.552;13.204;2023-11-21T10:43:16;55.70;;;34.25;;
25905;SDS011;13713;52.552;13.204;2023-11-21T10:45:42;57.78;;;34.63;;
25905;SDS011;13713;52.552;13.204;2023-11-21T10:48:09;59.00;;;34.97;;
25905;SDS011;13713;52.552;13.204;2023-11-21T10:50:36;49.13;;;30.50;;
25905;SDS011;13713;52.552;13.204;2023-11-21T10:53:03;54.97;;;30.42;;
25905;SDS011;13713;52.552;13.204;2023-11-21T10:55:29;63.05;;;34.35;;
25905;SDS011;13713;52.552;13.204;2023-11-21T10:57:58;73.63;;;40.22;;
25905;SDS011;13713;52.552;13.204;2023-11-21T11:00:27;63.50;;;37.08;;
25905;SDS011;13713;52.552;13.204;2023-11-21T11:02:54;59.17;;;35.60;;
25905;SDS011;13713;52.552;13.204;2023-11-21T11:05:21;118.32;;;54.10;;
25905;SDS011;13713;52.552;13.204;2023-11-21T11:07:56;168.75;;;76.95;;
25905;SDS011;13713;52.552;13.204;2023-11-21T11:10:25;468.15;;;218.77;;
25905;SDS011;13713;52.552;13.204;2023-11-21T11:12:53;214.25;;;88.45;;
25905;SDS011;13713;52.552;13.204;2023-11-21T11:15:20;223.93;;;105.07;;
25905;SDS011;13713;52.552;13.204;2023-11-21T11:17:47;165.15;;;73.70;;
25905;SDS011;13713;52.552;13.204;2023-11-21T11:20:14;138.55;;;68.70;;
25905;SDS011;13713;52.552;13.204;2023-11-21T11:23:08;119.45;;;59.38;;
25905;SDS011;13713;52.552;13.204;2023-11-21T11:31:50;87.50;;;45.67;;
25905;SDS011;13713;52.552;13.204;2023-11-21T11:34:32;75.47;;;41.72;;
25905;SDS011;13713;52.552;13.204;2023-11-21T11:37:21;85.63;;;45.58;;
25905;SDS011;13713;52.552;13.204;2023-11-21T11:39:48;71.93;;;37.80;;
25905;SDS011;13713;52.552;13.204;2023-11-21T11:42:15;69.85;;;39.47;;
25905;SDS011;13713;52.552;13.204;2023-11-21T11:47:27;65.13;;;38.13;;
25905;SDS011;13713;52.552;13.204;2023-11-21T11:50:05;749.58;;;362.27;;
25905;SDS011;13713;52.552;13.204;2023-11-21T11:52:37;507.55;;;243.30;;
25905;SDS011;13713;52.552;13.204;2023-11-21T11:55:05;269.70;;;129.65;;
25905;SDS011;13713;52.552;13.204;2023-11-21T11:57:35;206.63;;;101.57;;
25905;SDS011;13713;52.552;13.204;2023-11-21T12:02:38;426.25;;;213.52;;
25905;SDS011;13713;52.552;13.204;2023-11-21T12:05:11;313.85;;;150.93;;
25905;SDS011;13713;52.552;13.204;2023-11-21T12:07:45;211.57;;;107.82;;
25905;SDS011;13713;52.552;13.204;2023-11-21T12:10:13;176.77;;;85.47;;
25905;SDS011;13713;52.552;13.204;2023-11-21T12:15:11;389.10;;;185.68;;
25905;SDS011;13713;52.552;13.204;2023-11-21T12:17:38;376.52;;;188.88;;
25905;SDS011;13713;52.552;13.204;2023-11-21T12:20:04;313.20;;;149.15;;
25905;SDS011;13713;52.552;13.204;2023-11-21T12:22:40;289.65;;;141.48;;
25905;SDS011;13713;52.552;13.204;2023-11-21T12:25:08;438.30;;;212.25;;
25905;SDS011;13713;52.552;13.204;2023-11-21T12:27:33;444.90;;;227.25;;
25905;SDS011;13713;52.552;13.204;2023-11-21T12:30:00;343.67;;;174.60;;
25905;SDS011;13713;52.552;13.204;2023-11-21T12:32:26;356.08;;;174.82;;
25905;SDS011;13713;52.552;13.204;2023-11-21T12:34:51;315.92;;;157.63;;
25905;SDS011;13713;52.552;13.204;2023-11-21T12:37:17;289.02;;;147.55;;
25905;SDS011;13713;52.552;13.204;2023-11-21T12:39:43;289.45;;;141.85;;
25905;SDS011;13713;52.552;13.204;2023-11-21T12:42:09;269.27;;;136.55;;
25905;SDS011;13713;52.552;13.204;2023-11-21T12:44:35;251.68;;;129.38;;
25905;SDS011;13713;52.552;13.204;2023-11-21T12:47:02;224.02;;;120.07;;
25905;SDS011;13713;52.552;13.204;2023-11-21T12:49:28;229.35;;;118.70;;
25905;SDS011;13713;52.552;13.204;2023-11-21T12:51:54;238.77;;;123.63;;
25905;SDS011;13713;52.552;13.204;2023-11-21T12:54:20;199.80;;;105.95;;
25905;SDS011;13713;52.552;13.204;2023-11-21T12:56:58;200.07;;;111.00;;
25905;SDS011;13713;52.552;13.204;2023-11-21T12:59:26;207.07;;;108.57;;
25905;SDS011;13713;52.552;13.204;2023-11-21T13:01:53;195.18;;;102.82;;
25905;SDS011;13713;52.552;13.204;2023-11-21T13:04:29;170.80;;;92.13;;
25905;SDS011;13713;52.552;13.204;2023-11-21T13:07:02;173.00;;;94.13;;
25905;SDS011;13713;52.552;13.204;2023-11-21T13:09:38;185.75;;;96.75;;
25905;SDS011;13713;52.552;13.204;2023-11-21T13:12:04;169.63;;;90.10;;
25905;SDS011;13713;52.552;13.204;2023-11-21T13:14:34;156.80;;;86.40;;
25905;SDS011;13713;52.552;13.204;2023-11-21T13:17:00;163.32;;;85.13;;
25905;SDS011;13713;52.552;13.204;2023-11-21T13:19:26;147.02;;;78.90;;
25905;SDS011;13713;52.552;13.204;2023-11-21T13:21:52;169.80;;;83.22;;
25905;SDS011;13713;52.552;13.204;2023-11-21T13:24:19;175.13;;;83.00;;
25905;SDS011;13713;52.552;13.204;2023-11-21T13:26:46;199.68;;;83.22;;
25905;SDS011;13713;52.552;13.204;2023-11-21T13:29:13;228.00;;;97.57;;
25905;SDS011;13713;52.552;13.204;2023-11-21T13:31:38;156.55;;;74.30;;
25905;SDS011;13713;52.552;13.204;2023-11-21T13:34:04;182.23;;;84.60;;
25905;SDS011;13713;52.552;13.204;2023-11-21T13:36:30;188.65;;;83.90;;
25905;SDS011;13713;52.552;13.204;2023-11-21T13:38:58;176.70;;;76.72;;
25905;SDS011;13713;52.552;13.204;2023-11-21T13:41:29;147.30;;;72.88;;
25905;SDS011;13713;52.552;13.204;2023-11-21T13:43:56;140.52;;;67.75;;
25905;SDS011;13713;52.552;13.204;2023-11-21T13:46:31;175.43;;;69.35;;
25905;SDS011;13713;52.552;13.204;2023-11-21T13:49:02;181.68;;;76.70;;
25905;SDS011;13713;52.552;13.204;2023-11-21T13:51:28;213.00;;;87.75;;
25905;SDS011;13713;52.552;13.204;2023-11-21T13:54:04;144.00;;;66.05;;
25905;SDS011;13713;52.552;13.204;2023-11-21T13:56:36;143.20;;;65.45;;
25905;SDS011;13713;52.552;13.204;2023-11-21T13:59:04;133.00;;;60.65;;
25905;SDS011;13713;52.552;13.204;2023-11-21T14:01:41;118.55;;;55.85;;
25905;SDS011;13713;52.552;13.204;2023-11-21T14:04:20;136.05;;;63.80;;
25905;SDS011;13713;52.552;13.204;2023-11-21T14:07:00;110.90;;;56.65;;
25905;SDS011;13713;52.552;13.204;2023-11-21T14:09:45;114.30;;;53.90;;
25905;SDS011;13713;52.552;13.204;2023-11-21T14:12:11;104.88;;;51.97;;
25905;SDS011;13713;52.552;13.204;2023-11-21T14:14:38;120.03;;;57.17;;
25905;SDS011;13713;52.552;13.204;2023-11-21T14:17:05;147.43;;;69.47;;
25905;SDS011;13713;52.552;13.204;2023-11-21T14:19:32;120.18;;;59.63;;
25905;SDS011;13713;52.552;13.204;2023-11-21T14:21:58;116.20;;;57.63;;
25905;SDS011;13713;52.552;13.204;2023-11-21T14:24:25;105.93;;;52.45;;
25905;SDS011;13713;52.552;13.204;2023-11-21T14:26:50;112.15;;;52.22;;